Time;durP1;ratioP1;P1;durP2;ratioP2;P2;SDS_P1;SDS_P2;PMS_P1;PMS_P2;Temp;Humidity;BMP_temperature;BMP_pressure;BME280_temperature;BME280_humidity;BME280_pressure;Samples;Min_cycle;Max_cycle;Signal;HPM_P1;HPM_P2
2023/12/17 00:01:37;;;;;;;26.85;20.17;;;;;;;8.40;100.00;103791.34;5055140;28;20032;-76
2023/12/17 00:04:03;;;;;;;27.42;20.20;;;;;;;8.46;100.00;103801.25;5073380;28;20053;-76
2023/12/17 00:06:28;;;;;;;28.55;21.73;;;;;;;8.42;100.00;103794.06;5073056;28;20111;-76
2023/12/17 00:08:54;;;;;;;27.75;21.50;;;;;;;8.42;100.00;103799.34;5071833;28;20041;-76
2023/12/17 00:11:19;;;;;;;29.48;21.80;;;;;;;8.42;100.00;103785.25;5057707;28;20041;-76
2023/12/17 00:13:45;;;;;;;28.42;22.92;;;;;;;8.41;100.00;103768.53;5069223;28;20066;-76
2023/12/17 00:16:10;;;;;;;28.48;20.77;;;;;;;8.39;100.00;103764.88;5073007;28;20388;-77
2023/12/17 00:18:36;;;;;;;25.45;21.52;;;;;;;8.39;100.00;103773.72;5059756;28;20741;-76
2023/12/17 00:21:01;;;;;;;25.23;20.38;;;;;;;8.39;100.00;103767.53;5064710;28;20069;-76
2023/12/17 00:23:27;;;;;;;26.10;20.25;;;;;;;8.44;100.00;103775.66;5064997;28;20039;-76
2023/12/17 00:25:52;;;;;;;28.67;22.38;;;;;;;8.44;100.00;103770.38;5071548;28;20075;-76
2023/12/17 00:28:17;;;;;;;26.52;20.95;;;;;;;8.44;100.00;103768.59;5070624;28;20040;-76
2023/12/17 00:30:43;;;;;;;24.73;19.85;;;;;;;8.40;100.00;103759.66;5072443;28;20086;-76
2023/12/17 00:33:10;;;;;;;26.38;21.10;;;;;;;8.43;100.00;103758.88;5053015;28;20036;-75
2023/12/17 00:35:36;;;;;;;27.40;21.55;;;;;;;8.42;100.00;103756.19;5071441;28;20430;-75
2023/12/17 00:38:01;;;;;;;26.20;20.80;;;;;;;8.42;100.00;103762.38;5057627;28;20032;-76
2023/12/17 00:40:27;;;;;;;27.33;21.15;;;;;;;8.43;100.00;103768.53;5071004;28;20047;-76
2023/12/17 00:42:52;;;;;;;24.90;19.58;;;;;;;8.43;100.00;103772.06;5056366;28;20060;-76
2023/12/17 00:45:17;;;;;;;27.92;21.13;;;;;;;8.39;100.00;103765.81;5072314;28;20044;-76
2023/12/17 00:47:43;;;;;;;27.05;20.02;;;;;;;8.42;100.00;103759.72;5069507;28;20047;-76
2023/12/17 00:50:09;;;;;;;26.50;20.20;;;;;;;8.44;100.00;103757.16;5033818;28;20499;-75
2023/12/17 00:52:34;;;;;;;25.83;19.73;;;;;;;8.42;100.00;103746.53;5065444;28;20480;-75
2023/12/17 00:54:59;;;;;;;26.60;19.75;;;;;;;8.42;100.00;103738.59;5072083;28;20039;-76
2023/12/17 00:57:25;;;;;;;27.55;19.20;;;;;;;8.43;100.00;103745.66;5072437;28;20048;-75
2023/12/17 00:59:51;;;;;;;25.13;18.63;;;;;;;8.43;100.00;103742.13;5069069;28;20032;-76
2023/12/17 01:02:16;;;;;;;29.33;20.15;;;;;;;8.45;100.00;103733.41;5072184;28;20515;-76
2023/12/17 01:04:42;;;;;;;29.02;21.63;;;;;;;8.42;100.00;103730.69;5051278;28;20056;-75
2023/12/17 01:07:07;;;;;;;29.23;23.48;;;;;;;8.43;100.00;103735.09;5069189;28;20040;-75
2023/12/17 01:09:33;;;;;;;28.95;20.98;;;;;;;8.45;100.00;103732.53;5060400;28;20044;-75
2023/12/17 01:12:02;;;;;;;27.42;20.38;;;;;;;8.42;100.00;103729.78;5069543;28;20452;-75
2023/12/17 01:14:32;;;;;;;29.05;20.33;;;;;;;8.43;100.00;103729.81;5063690;28;20047;-76
2023/12/17 01:16:58;;;;;;;32.00;21.63;;;;;;;8.39;100.00;103733.19;5071863;28;20391;-76
2023/12/17 01:19:23;;;;;;;30.05;22.20;;;;;;;8.37;100.00;103732.25;5064009;28;20037;-76
2023/12/17 01:21:49;;;;;;;27.60;21.73;;;;;;;8.38;100.00;103744.59;5066413;28;20051;-76
2023/12/17 01:24:14;;;;;;;24.60;19.20;;;;;;;8.37;100.00;103742.81;5070550;28;20048;-76
2023/12/17 01:26:40;;;;;;;27.77;20.83;;;;;;;8.35;100.00;103749.78;5053327;28;20037;-76
2023/12/17 01:29:05;;;;;;;29.58;20.65;;;;;;;8.35;100.00;103753.31;5069998;28;20055;-76
2023/12/17 01:31:31;;;;;;;25.90;20.60;;;;;;;8.37;100.00;103754.25;5070338;28;20060;-75
2023/12/17 01:33:56;;;;;;;24.83;18.45;;;;;;;8.39;100.00;103749.97;5053751;28;20043;-76
2023/12/17 01:36:22;;;;;;;23.40;16.98;;;;;;;8.39;100.00;103752.59;5070861;28;20044;-75
2023/12/17 01:38:47;;;;;;;20.77;16.23;;;;;;;8.42;100.00;103754.44;5053631;28;20510;-75
2023/12/17 01:41:13;;;;;;;24.77;18.95;;;;;;;8.44;100.00;103751.88;5071797;28;20083;-76
2023/12/17 01:43:38;;;;;;;23.83;17.35;;;;;;;8.44;100.00;103759.78;5071648;28;20055;-76
2023/12/17 01:46:04;;;;;;;20.17;15.75;;;;;;;8.43;100.00;103757.97;5070439;28;20043;-76
2023/12/17 01:48:30;;;;;;;23.25;16.90;;;;;;;8.41;100.00;103755.31;5071569;28;20063;-75
2023/12/17 01:50:56;;;;;;;19.73;14.93;;;;;;;8.46;100.00;103763.41;5069845;28;20123;-76
2023/12/17 01:53:23;;;;;;;21.85;15.77;;;;;;;8.45;100.00;103754.56;5071545;28;20100;-76
2023/12/17 01:55:49;;;;;;;23.85;16.55;;;;;;;8.45;100.00;103758.94;5053398;28;20532;-76
2023/12/17 01:58:15;;;;;;;20.88;15.60;;;;;;;8.44;100.00;103770.38;5070533;28;20049;-76
2023/12/17 02:00:41;;;;;;;24.20;16.70;;;;;;;8.45;100.00;103766.84;5070161;28;20364;-76
2023/12/17 02:03:07;;;;;;;29.92;19.77;;;;;;;8.43;100.00;103766.78;5070666;28;20040;-76
2023/12/17 02:05:33;;;;;;;22.77;16.70;;;;;;;8.43;100.00;103763.25;5070193;28;20044;-76
2023/12/17 02:07:59;;;;;;;25.58;16.00;;;;;;;8.42;100.00;103757.09;5071485;28;20051;-76
2023/12/17 02:10:26;;;;;;;24.13;16.77;;;;;;;8.44;100.00;103763.31;5071221;28;20028;-75
2023/12/17 02:12:51;;;;;;;23.27;16.63;;;;;;;8.43;100.00;103765.91;5053737;28;20028;-76
2023/12/17 02:15:17;;;;;;;22.40;16.55;;;;;;;8.44;100.00;103768.59;5070223;28;20047;-76
2023/12/17 02:17:42;;;;;;;21.73;15.52;;;;;;;8.43;100.00;103766.78;5070316;28;20031;-75
2023/12/17 02:20:08;;;;;;;22.20;16.38;;;;;;;8.45;100.00;103769.50;5069967;28;20036;-75
2023/12/17 02:22:34;;;;;;;24.45;16.45;;;;;;;8.40;100.00;103758.78;5053278;28;20124;-76
2023/12/17 02:25:00;;;;;;;22.95;15.48;;;;;;;8.38;100.00;103765.72;5053122;28;20068;-76
2023/12/17 02:27:26;;;;;;;22.10;14.93;;;;;;;8.37;100.00;103759.53;5069937;28;20063;-76
2023/12/17 02:29:53;;;;;;;21.75;14.73;;;;;;;8.37;100.00;103750.72;5070985;28;20445;-75
2023/12/17 02:32:23;;;;;;;17.30;12.10;;;;;;;8.37;100.00;103756.91;5071032;28;20097;-78
2023/12/17 02:34:52;;;;;;;19.10;12.18;;;;;;;8.37;100.00;103756.00;5053141;28;20403;-76
2023/12/17 02:37:18;;;;;;;16.70;10.05;;;;;;;8.36;100.00;103759.50;5072102;28;20471;-75
2023/12/17 02:39:43;;;;;;;14.15;9.43;;;;;;;8.37;100.00;103766.56;5073286;28;20056;-76
2023/12/17 02:42:09;;;;;;;15.20;9.02;;;;;;;8.35;100.00;103766.50;5075006;28;20455;-76
2023/12/17 02:44:35;;;;;;;15.60;8.85;;;;;;;8.37;100.00;103756.00;5073451;28;20048;-76
2023/12/17 02:47:00;;;;;;;11.48;9.10;;;;;;;8.35;100.00;103755.06;5074854;28;20013;-76
2023/12/17 02:49:26;;;;;;;14.35;9.20;;;;;;;8.36;100.00;103751.59;5072209;28;20442;-76
2023/12/17 02:51:52;;;;;;;11.95;8.32;;;;;;;8.34;100.00;103748.88;5073070;28;20031;-76
2023/12/17 02:54:19;;;;;;;13.52;8.68;;;;;;;8.35;100.00;103755.06;5056572;28;20516;-76
2023/12/17 02:56:45;;;;;;;13.60;8.30;;;;;;;8.38;100.00;103758.72;5074619;28;20387;-76
2023/12/17 02:59:12;;;;;;;16.42;9.07;;;;;;;8.36;100.00;103755.13;5074408;28;20052;-76
2023/12/17 03:01:42;;;;;;;14.93;8.98;;;;;;;8.36;100.00;103759.50;5072801;28;20090;-76
2023/12/17 03:04:08;;;;;;;15.05;9.20;;;;;;;8.35;100.00;103755.06;5074403;28;20473;-75
2023/12/17 03:06:35;;;;;;;13.45;8.65;;;;;;;8.37;100.00;103745.44;5074264;28;20021;-76
2023/12/17 03:09:00;;;;;;;15.05;9.23;;;;;;;8.35;100.00;103741.84;5073727;28;20071;-76
2023/12/17 03:11:26;;;;;;;15.57;10.13;;;;;;;8.36;100.00;103739.28;5053522;28;20053;-75
2023/12/17 03:13:51;;;;;;;14.73;9.23;;;;;;;8.37;100.00;103737.53;5073731;28;20032;-78
2023/12/17 03:16:17;;;;;;;13.40;9.93;;;;;;;8.36;100.00;103734.00;5074211;28;20424;-78
2023/12/17 03:18:42;;;;;;;15.93;10.77;;;;;;;8.38;100.00;103737.59;5072206;28;20500;-78
2023/12/17 03:21:08;;;;;;;21.15;10.73;;;;;;;8.38;100.00;103728.75;5055802;28;20032;-78
2023/12/17 03:23:34;;;;;;;20.27;11.98;;;;;;;8.35;100.00;103724.25;5073977;28;20028;-78
2023/12/17 03:26:00;;;;;;;20.88;13.05;;;;;;;8.37;100.00;103725.22;5074462;28;20048;-78
2023/12/17 03:28:25;;;;;;;23.00;13.40;;;;;;;8.35;100.00;103724.25;5073279;28;20047;-78
2023/12/17 03:30:51;;;;;;;25.17;14.50;;;;;;;8.34;100.00;103727.75;5074126;28;20499;-78
2023/12/17 03:33:16;;;;;;;26.33;15.20;;;;;;;8.35;100.00;103728.66;5064126;28;20043;-78
2023/12/17 03:35:42;;;;;;;26.75;17.65;;;;;;;8.33;100.00;103725.06;5070382;28;20478;-78
2023/12/17 03:38:08;;;;;;;35.15;19.10;;;;;;;8.34;100.00;103725.13;5073913;28;20060;-78
2023/12/17 03:40:33;;;;;;;32.10;20.10;;;;;;;8.37;100.00;103721.69;5072361;28;20032;-78
2023/12/17 03:43:01;;;;;;;29.65;19.27;;;;;;;8.36;100.00;103725.19;5073954;28;20045;-78
2023/12/17 03:45:26;;;;;;;35.95;23.13;;;;;;;8.34;100.00;103717.19;5073554;28;20070;-78
2023/12/17 03:47:52;;;;;;;33.95;21.95;;;;;;;8.37;100.00;103716.41;5071575;28;20028;-78
2023/12/17 03:50:18;;;;;;;34.83;21.38;;;;;;;8.36;100.00;103722.53;5054443;28;20036;-78
2023/12/17 03:52:46;;;;;;;31.55;21.42;;;;;;;8.36;100.00;103715.50;5073393;28;20163;-78
2023/12/17 03:55:12;;;;;;;30.95;21.73;;;;;;;8.35;100.00;103702.25;5072042;28;20021;-78
2023/12/17 03:57:38;;;;;;;34.42;23.33;;;;;;;8.32;100.00;103705.69;5072087;28;20081;-78
2023/12/17 04:00:03;;;;;;;31.05;22.15;;;;;;;8.31;100.00;103709.19;5072053;28;20048;-78
2023/12/17 04:02:31;;;;;;;36.85;24.05;;;;;;;8.29;100.00;103710.88;5073303;28;20098;-77
2023/12/17 04:04:56;;;;;;;33.78;23.45;;;;;;;8.28;100.00;103700.25;5071859;28;20029;-77
2023/12/17 04:07:22;;;;;;;36.45;25.10;;;;;;;8.31;100.00;103700.38;5073295;28;20047;-78
2023/12/17 04:09:48;;;;;;;33.85;24.25;;;;;;;8.31;100.00;103705.66;5052317;28;20040;-78
2023/12/17 04:12:13;;;;;;;37.17;24.30;;;;;;;8.32;100.00;103691.59;5071767;28;20479;-78
2023/12/17 04:14:40;;;;;;;34.90;22.20;;;;;;;8.32;100.00;103696.88;5071545;28;20489;-78
2023/12/17 04:17:05;;;;;;;30.67;21.95;;;;;;;8.32;100.00;103689.84;5071928;28;20024;-78
2023/12/17 04:19:31;;;;;;;33.10;21.40;;;;;;;8.34;100.00;103692.53;5088262;28;20140;-78
2023/12/17 04:21:56;;;;;;;32.95;22.88;;;;;;;8.34;100.00;103689.91;5072951;28;20093;-78
2023/12/17 04:24:22;;;;;;;28.67;20.10;;;;;;;8.33;100.00;103686.38;5072979;28;20029;-78
2023/12/17 04:26:47;;;;;;;31.65;22.88;;;;;;;8.32;100.00;103683.66;5053210;28;20511;-79
2023/12/17 04:29:13;;;;;;;28.13;18.80;;;;;;;8.31;100.00;103685.41;5071347;28;20064;-78
2023/12/17 04:31:38;;;;;;;27.25;19.55;;;;;;;8.30;100.00;103672.16;5071230;28;20076;-78
2023/12/17 04:34:04;;;;;;;28.00;17.45;;;;;;;8.29;100.00;103678.28;5071078;28;20032;-78
2023/12/17 04:36:29;;;;;;;26.73;19.05;;;;;;;8.26;100.00;103679.09;5071267;28;20097;-78
2023/12/17 04:38:54;;;;;;;27.17;18.55;;;;;;;8.29;100.00;103678.28;5051125;28;20041;-78
2023/12/17 04:41:20;;;;;;;28.27;18.67;;;;;;;8.26;100.00;103687.00;5060758;28;20468;-78
2023/12/17 04:43:45;;;;;;;23.65;15.35;;;;;;;8.26;100.00;103675.53;5072386;28;20466;-77
2023/12/17 04:46:11;;;;;;;26.63;17.88;;;;;;;8.25;100.00;103674.63;5071462;28;20115;-78
2023/12/17 04:48:36;;;;;;;24.77;16.58;;;;;;;8.24;100.00;103682.53;5087912;28;20842;-78
2023/12/17 04:51:02;;;;;;;22.98;15.88;;;;;;;8.24;100.00;103680.78;5042873;28;20472;-78
2023/12/17 04:53:28;;;;;;;23.33;15.15;;;;;;;8.24;100.00;103685.16;5072303;28;20154;-78
2023/12/17 04:55:53;;;;;;;27.52;16.92;;;;;;;8.24;100.00;103685.16;5072055;28;20394;-79
2023/12/17 04:58:19;;;;;;;21.63;15.52;;;;;;;8.19;100.00;103677.09;5070959;28;20036;-78
2023/12/17 05:00:44;;;;;;;26.20;18.38;;;;;;;8.18;100.00;103672.63;5070498;28;20036;-78
2023/12/17 05:03:09;;;;;;;21.25;13.60;;;;;;;8.18;100.00;103676.19;5072035;28;20040;-78
2023/12/17 05:05:35;;;;;;;24.92;16.40;;;;;;;8.17;100.00;103673.50;5054185;28;20117;-78
2023/12/17 05:08:01;;;;;;;25.90;17.98;;;;;;;8.15;100.00;103676.06;5070604;28;20210;-78
2023/12/17 05:10:27;;;;;;;27.63;17.73;;;;;;;8.16;100.00;103674.34;5071981;28;20028;-78
2023/12/17 05:12:53;;;;;;;26.77;17.10;;;;;;;8.17;100.00;103681.41;5072058;28;20028;-79
2023/12/17 05:15:20;;;;;;;29.40;18.75;;;;;;;8.15;100.00;103680.47;5072045;28;20117;-78
2023/12/17 05:17:46;;;;;;;29.98;17.90;;;;;;;8.15;100.00;103675.19;5080946;28;20500;-78
2023/12/17 05:20:11;;;;;;;28.15;17.02;;;;;;;8.15;100.00;103675.19;5070328;28;20165;-78
2023/12/17 05:22:37;;;;;;;31.50;19.23;;;;;;;8.12;100.00;103675.97;5060894;28;20048;-79
2023/12/17 05:25:02;;;;;;;28.38;18.02;;;;;;;8.12;100.00;103680.38;5074372;28;20036;-79
2023/12/17 05:27:28;;;;;;;30.23;17.55;;;;;;;8.12;100.00;103688.28;5033676;28;20300;-78
2023/12/17 05:29:56;;;;;;;28.83;18.50;;;;;;;8.07;100.00;103672.28;5040665;28;20539;-78
2023/12/17 05:32:22;;;;;;;31.92;19.55;;;;;;;8.06;100.00;103678.41;5070690;28;20111;-79
2023/12/17 05:34:47;;;;;;;28.73;19.30;;;;;;;8.07;100.00;103681.97;5069255;28;20112;-79
2023/12/17 05:37:13;;;;;;;26.95;17.73;;;;;;;8.04;100.00;103677.47;5048325;28;20040;-78
2023/12/17 05:39:38;;;;;;;32.17;20.10;;;;;;;8.03;100.00;103674.75;5071445;28;20110;-79
2023/12/17 05:42:04;;;;;;;31.27;17.90;;;;;;;8.04;100.00;103676.59;5071553;28;20029;-78
2023/12/17 05:44:29;;;;;;;29.40;19.80;;;;;;;8.00;100.00;103677.31;5070136;28;20144;-79
2023/12/17 05:46:55;;;;;;;27.73;18.17;;;;;;;8.03;100.00;103677.41;5071592;28;20048;-78
2023/12/17 05:49:20;;;;;;;32.58;18.40;;;;;;;8.02;100.00;103670.34;5056572;28;20093;-78
2023/12/17 05:51:46;;;;;;;34.28;21.05;;;;;;;7.98;100.00;103670.22;5070076;28;20040;-78
2023/12/17 05:54:11;;;;;;;33.58;18.88;;;;;;;7.96;100.00;103668.38;5071147;28;20032;-79
2023/12/17 05:56:41;;;;;;;31.95;19.52;;;;;;;7.94;100.00;103667.44;5070216;28;20033;-78
2023/12/17 05:59:07;;;;;;;30.13;18.35;;;;;;;7.93;100.00;103657.72;5071426;28;20471;-80
2023/12/17 06:01:33;;;;;;;35.85;19.40;;;;;;;7.93;100.00;103660.34;5071383;28;20044;-78
2023/12/17 06:03:58;;;;;;;35.25;20.02;;;;;;;7.89;100.00;103664.66;5071362;28;20025;-78
2023/12/17 06:06:24;;;;;;;30.10;19.90;;;;;;;7.89;100.00;103658.47;5063772;28;20423;-79
2023/12/17 06:08:49;;;;;;;33.00;19.38;;;;;;;7.86;100.00;103659.28;5041926;28;20080;-78
2023/12/17 06:11:18;;;;;;;32.42;19.92;;;;;;;7.89;100.00;103667.28;5043307;28;20025;-79
2023/12/17 06:13:45;;;;;;;34.42;18.35;;;;;;;7.88;100.00;103664.59;5075155;28;20055;-78
2023/12/17 06:16:13;;;;;;;31.00;18.38;;;;;;;7.88;100.00;103670.75;5075258;28;20499;-78
2023/12/17 06:18:41;;;;;;;24.33;16.40;;;;;;;7.89;100.00;103676.94;5063689;28;20055;-78
2023/12/17 06:21:06;;;;;;;28.42;17.85;;;;;;;7.83;100.00;103674.97;5060378;28;20424;-78
2023/12/17 06:23:32;;;;;;;27.98;16.83;;;;;;;7.83;100.00;103674.97;5073619;28;20029;-78
2023/12/17 06:25:57;;;;;;;27.77;16.23;;;;;;;7.82;100.00;103670.56;5073966;28;20451;-78
2023/12/17 06:28:24;;;;;;;26.00;16.73;;;;;;;7.83;100.00;103674.97;5073776;28;20094;-78
2023/12/17 06:30:49;;;;;;;27.05;16.58;;;;;;;7.84;100.00;103675.88;5074676;28;20413;-79
2023/12/17 06:33:15;;;;;;;25.20;16.38;;;;;;;7.82;100.00;103675.81;5074865;28;20094;-78
2023/12/17 06:35:40;;;;;;;29.08;16.50;;;;;;;7.81;100.00;103675.75;5074679;28;20059;-78
2023/12/17 06:38:06;;;;;;;31.17;17.90;;;;;;;7.77;100.00;103682.69;5074725;28;20095;-78
2023/12/17 06:40:32;;;;;;;24.65;17.27;;;;;;;7.75;100.00;103674.72;5066872;28;20126;-79
2023/12/17 06:42:57;;;;;;;26.75;15.60;;;;;;;7.74;100.00;103677.31;5074726;28;20040;-78
2023/12/17 06:45:23;;;;;;;26.23;17.13;;;;;;;7.72;100.00;103674.59;5074475;28;20365;-78
2023/12/17 06:47:49;;;;;;;25.88;16.67;;;;;;;7.69;100.00;103668.31;5074501;28;20529;-78
2023/12/17 06:50:15;;;;;;;26.30;15.68;;;;;;;7.71;100.00;103670.16;5055431;28;20044;-80
2023/12/17 06:52:41;;;;;;;28.77;17.13;;;;;;;7.66;100.00;103670.84;5052149;28;20051;-78
2023/12/17 06:55:07;;;;;;;27.40;15.75;;;;;;;7.62;100.00;103669.84;5074961;28;20475;-78
2023/12/17 06:57:33;;;;;;;26.33;16.75;;;;;;;7.61;100.00;103669.78;5074819;28;20115;-78
2023/12/17 06:59:58;;;;;;;26.17;16.15;;;;;;;7.65;100.00;103666.44;5070993;28;20111;-78
2023/12/17 07:02:24;;;;;;;25.50;15.95;;;;;;;7.61;100.00;103675.06;5055949;28;20041;-78
2023/12/17 07:04:49;;;;;;;24.35;15.38;;;;;;;7.60;100.00;103671.53;5074126;28;20032;-78
2023/12/17 07:07:15;;;;;;;23.02;13.77;;;;;;;7.61;100.00;103669.78;5071521;28;20402;-78
2023/12/17 07:09:40;;;;;;;21.80;14.05;;;;;;;7.62;100.00;103675.13;5050764;28;20043;-79
2023/12/17 07:12:08;;;;;;;18.40;12.15;;;;;;;7.59;100.00;103668.81;5073749;28;20537;-78
2023/12/17 07:14:33;;;;;;;18.45;13.00;;;;;;;7.56;100.00;103671.38;5072136;28;20078;-78
2023/12/17 07:16:59;;;;;;;18.98;12.63;;;;;;;7.53;100.00;103673.03;5056317;28;20020;-78
2023/12/17 07:19:25;;;;;;;20.98;14.02;;;;;;;7.48;100.00;103661.44;5065283;28;20041;-78
2023/12/17 07:21:50;;;;;;;15.23;12.05;;;;;;;7.50;100.00;103674.69;5072576;28;20043;-78
2023/12/17 07:24:16;;;;;;;18.83;13.32;;;;;;;7.51;100.00;103687.91;5054538;28;20037;-78
2023/12/17 07:26:41;;;;;;;23.40;13.73;;;;;;;7.52;100.00;103680.91;5054197;28;20041;-78
2023/12/17 07:29:07;;;;;;;17.75;12.40;;;;;;;7.52;100.00;103683.56;5074259;28;20028;-78
2023/12/17 07:31:33;;;;;;;19.65;13.48;;;;;;;7.49;100.00;103689.63;5073075;28;20080;-78
2023/12/17 07:33:58;;;;;;;19.35;12.95;;;;;;;7.52;100.00;103684.44;5073256;28;20036;-78
2023/12/17 07:36:25;;;;;;;16.85;12.20;;;;;;;7.56;100.00;103687.19;5073431;28;20048;-78
2023/12/17 07:38:50;;;;;;;18.00;12.43;;;;;;;7.52;100.00;103687.09;5073572;28;20483;-77
2023/12/17 07:41:16;;;;;;;17.10;12.27;;;;;;;7.52;100.00;103691.47;5073745;28;20055;-78
2023/12/17 07:43:41;;;;;;;19.00;12.40;;;;;;;7.51;100.00;103685.28;5073410;28;20123;-78
2023/12/17 07:46:07;;;;;;;17.30;12.75;;;;;;;7.51;100.00;103687.91;5072310;28;20499;-78
2023/12/17 07:48:32;;;;;;;19.85;12.85;;;;;;;7.47;100.00;103695.69;5073005;28;20047;-78
2023/12/17 07:50:58;;;;;;;20.65;13.52;;;;;;;7.45;100.00;103694.72;5051693;28;20062;-78
2023/12/17 07:53:23;;;;;;;21.13;12.93;;;;;;;7.46;100.00;103700.03;5073357;28;20098;-78
2023/12/17 07:55:50;;;;;;;17.65;13.07;;;;;;;7.45;100.00;103695.59;5073344;28;20032;-78
2023/12/17 07:58:15;;;;;;;20.10;13.75;;;;;;;7.40;100.00;103693.66;5064837;28;20484;-80
2023/12/17 08:00:41;;;;;;;19.75;13.40;;;;;;;7.40;100.00;103702.44;5067516;28;20063;-78
2023/12/17 08:03:06;;;;;;;23.25;13.80;;;;;;;7.42;100.00;103699.84;5065953;28;20037;-78
2023/12/17 08:05:32;;;;;;;18.73;12.55;;;;;;;7.39;100.00;103698.00;5051838;28;20112;-78
2023/12/17 08:07:57;;;;;;;19.00;13.35;;;;;;;7.41;100.00;103691.06;5052144;28;20048;-78
2023/12/17 08:10:23;;;;;;;20.35;14.57;;;;;;;7.38;100.00;103690.94;5063436;28;20041;-78
2023/12/17 08:12:48;;;;;;;20.67;14.15;;;;;;;7.40;100.00;103696.28;5071501;28;20033;-78
2023/12/17 08:15:14;;;;;;;23.15;14.68;;;;;;;7.41;100.00;103690.16;5054841;28;20056;-78
2023/12/17 08:17:40;;;;;;;22.33;13.73;;;;;;;7.42;100.00;103694.56;5070665;28;20042;-78
2023/12/17 08:20:07;;;;;;;20.10;13.25;;;;;;;7.44;100.00;103696.47;5072536;28;20045;-79
2023/12/17 08:22:41;;;;;;;18.63;12.70;;;;;;;7.44;100.00;103695.53;5061040;28;20048;-77
2023/12/17 08:25:06;;;;;;;17.90;12.35;;;;;;;7.43;100.00;103699.03;5054441;28;20056;-77
2023/12/17 08:27:32;;;;;;;18.17;11.63;;;;;;;7.41;100.00;103698.06;5073050;28;20375;-77
2023/12/17 08:29:57;;;;;;;17.33;12.25;;;;;;;7.42;100.00;103697.22;5072164;28;20499;-78
2023/12/17 08:32:31;;;;;;;18.08;11.90;;;;;;;7.42;100.00;103703.41;5072543;28;20477;-77
2023/12/17 08:34:56;;;;;;;15.15;10.02;;;;;;;7.43;100.00;103693.75;5070961;28;20071;-78
2023/12/17 08:37:23;;;;;;;15.63;10.45;;;;;;;7.41;100.00;103698.97;5071319;28;20465;-77
2023/12/17 08:39:49;;;;;;;16.33;11.98;;;;;;;7.40;100.00;103694.53;5070986;28;20131;-77
2023/12/17 08:42:14;;;;;;;15.77;11.52;;;;;;;7.37;100.00;103698.78;5070787;28;20127;-78
2023/12/17 08:44:40;;;;;;;16.70;10.60;;;;;;;7.38;100.00;103708.50;5070934;28;20028;-77
2023/12/17 08:47:05;;;;;;;14.18;10.13;;;;;;;7.38;100.00;103698.84;5070670;28;20032;-78
2023/12/17 08:49:31;;;;;;;14.20;9.15;;;;;;;7.37;100.00;103699.72;5068944;28;20106;-75
2023/12/17 08:51:57;;;;;;;11.60;9.13;;;;;;;7.26;100.00;103701.91;5072122;28;20032;-75
2023/12/17 08:54:23;;;;;;;11.82;8.75;;;;;;;7.24;100.00;103700.97;5070835;28;20052;-76
2023/12/17 08:56:49;;;;;;;14.40;8.98;;;;;;;7.26;100.00;103709.84;5071915;28;20024;-76
2023/12/17 08:59:14;;;;;;;14.02;10.02;;;;;;;7.16;100.00;103698.91;5053691;28;20083;-77
2023/12/17 09:01:40;;;;;;;11.35;9.13;;;;;;;7.15;100.00;103705.03;5053760;28;20052;-77
2023/12/17 09:04:06;;;;;;;12.38;9.10;;;;;;;7.15;100.00;103705.91;5071829;28;20115;-74
2023/12/17 09:06:41;;;;;;;12.90;9.40;;;;;;;7.14;100.00;103712.00;5070315;28;20478;-76
2023/12/17 09:09:07;;;;;;;15.40;8.95;;;;;;;7.07;100.00;103707.31;5062442;28;20446;-75
2023/12/17 09:11:33;;;;;;;10.50;7.90;;;;;;;7.05;100.00;103709.94;5070427;28;20032;-75
2023/12/17 09:13:59;;;;;;;14.55;9.18;;;;;;;7.07;100.00;103696.78;5066530;28;20632;-75
2023/12/17 09:16:24;;;;;;;15.60;10.18;;;;;;;7.05;100.00;103696.75;5066718;28;20036;-76
2023/12/17 09:18:50;;;;;;;15.57;10.50;;;;;;;7.03;100.00;103698.41;5060020;28;20423;-75
2023/12/17 09:21:15;;;;;;;12.63;9.77;;;;;;;7.00;100.00;103689.53;5051608;28;20135;-76
2023/12/17 09:23:41;;;;;;;14.48;10.45;;;;;;;6.96;100.00;103692.84;5066480;28;20025;-75
2023/12/17 09:26:06;;;;;;;16.17;10.60;;;;;;;6.96;100.00;103701.66;5069860;28;20033;-75
2023/12/17 09:28:32;;;;;;;15.15;10.15;;;;;;;6.97;100.00;103705.19;5070353;28;20422;-74
2023/12/17 09:30:57;;;;;;;15.88;10.63;;;;;;;6.98;100.00;103709.63;5064172;28;20132;-75
2023/12/17 09:33:23;;;;;;;15.52;12.20;;;;;;;6.94;100.00;103708.59;5059460;28;20063;-76
2023/12/17 09:35:49;;;;;;;13.60;10.15;;;;;;;6.96;100.00;103704.28;5055524;28;20033;-75
2023/12/17 09:38:16;;;;;;;15.23;10.57;;;;;;;6.88;100.00;103705.75;5061719;28;20477;-76
2023/12/17 09:40:43;;;;;;;14.95;10.98;;;;;;;6.84;100.00;103702.06;5069067;28;20459;-80
2023/12/17 09:43:10;;;;;;;14.35;9.98;;;;;;;6.80;100.00;103718.59;5067207;28;20037;-76
2023/12/17 09:45:37;;;;;;;14.13;11.13;;;;;;;6.77;100.00;103713.19;5070834;28;20029;-76
2023/12/17 09:48:03;;;;;;;16.20;11.23;;;;;;;6.78;100.00;103707.09;5069674;28;20063;-76
2023/12/17 09:50:28;;;;;;;15.23;10.20;;;;;;;6.79;100.00;103714.16;5069472;28;20032;-77
2023/12/17 09:52:54;;;;;;;16.58;11.50;;;;;;;6.68;100.00;103720.75;5066796;28;20467;-76
2023/12/17 09:55:20;;;;;;;19.40;12.13;;;;;;;6.67;100.00;103713.66;5069142;28;20040;-76
2023/12/17 09:57:46;;;;;;;19.27;12.80;;;;;;;6.68;100.00;103716.38;5051961;28;20471;-76
2023/12/17 10:00:12;;;;;;;18.38;12.35;;;;;;;6.74;100.00;103715.72;5058120;28;20025;-76
2023/12/17 10:02:39;;;;;;;21.63;14.32;;;;;;;6.65;100.00;103725.88;5051974;28;20099;-76
2023/12/17 10:05:06;;;;;;;21.85;14.63;;;;;;;6.56;100.00;103707.09;5070861;28;20032;-77
2023/12/17 10:07:31;;;;;;;17.92;12.77;;;;;;;6.58;100.00;103708.06;5069880;28;20392;-76
2023/12/17 10:09:57;;;;;;;23.75;12.90;;;;;;;6.59;100.00;103710.72;5070672;28;20119;-75
2023/12/17 10:12:23;;;;;;;18.90;12.10;;;;;;;6.63;100.00;103712.66;5064020;28;20483;-76
2023/12/17 10:14:51;;;;;;;17.50;12.05;;;;;;;6.59;100.00;103708.09;5056074;28;20032;-76
2023/12/17 10:17:17;;;;;;;23.85;15.55;;;;;;;6.55;100.00;103716.72;5081051;28;20467;-76
2023/12/17 10:19:48;;;;;;;25.50;16.33;;;;;;;6.53;100.00;103721.03;5067918;28;20067;-76
2023/12/17 10:22:13;;;;;;;29.02;17.15;;;;;;;6.59;100.00;103723.00;5069187;28;20080;-76
2023/12/17 10:24:41;;;;;;;27.52;17.63;;;;;;;6.61;100.00;103734.50;5035330;28;20092;-76
2023/12/17 10:27:33;;;;;;;29.08;17.95;;;;;;;6.57;100.00;103736.09;5052631;28;20078;-76
2023/12/17 10:30:00;;;;;;;26.77;17.33;;;;;;;6.55;100.00;103728.97;5065438;28;20033;-76
2023/12/17 10:32:26;;;;;;;29.40;17.70;;;;;;;6.57;100.00;103728.19;5068283;28;20036;-76
2023/12/17 10:34:53;;;;;;;25.45;15.85;;;;;;;6.63;100.00;103733.72;5067602;28;20036;-76
2023/12/17 10:37:20;;;;;;;29.20;17.55;;;;;;;6.59;100.00;103717.72;5069861;28;20387;-75
2023/12/17 10:39:49;;;;;;;28.85;17.23;;;;;;;6.57;100.00;103707.13;5069237;28;20037;-76
2023/12/17 10:42:19;;;;;;;32.63;18.33;;;;;;;6.65;100.00;103705.72;5070538;28;20460;-76
2023/12/17 10:44:49;;;;;;;29.77;18.05;;;;;;;6.58;100.00;103708.06;5070273;28;20460;-76
2023/12/17 10:47:21;;;;;;;31.63;17.75;;;;;;;6.58;100.00;103698.41;5070530;28;20028;-76
2023/12/17 10:49:47;;;;;;;33.10;17.42;;;;;;;6.58;100.00;103684.34;5069114;28;20132;-76
2023/12/17 10:52:12;;;;;;;36.75;19.73;;;;;;;6.61;100.00;103695.00;5070308;28;20120;-76
2023/12/17 10:54:39;;;;;;;30.42;18.13;;;;;;;6.65;100.00;103691.63;5070130;28;20049;-76
2023/12/17 10:57:10;;;;;;;32.75;18.90;;;;;;;6.68;100.00;103694.41;5066315;28;20043;-76
2023/12/17 10:59:38;;;;;;;31.92;18.35;;;;;;;6.70;100.00;103691.81;5073552;28;20119;-76
2023/12/17 11:02:05;;;;;;;33.47;19.00;;;;;;;6.72;100.00;103687.53;5073716;28;20467;-76
2023/12/17 11:04:31;;;;;;;29.55;17.63;;;;;;;6.76;100.00;103687.72;5060887;28;20066;-76